METAR LDZA 181830Z 07003KT 030V120 9999 OVC024 02/M01 Q1019 NOSIG =
METAR LDZA 181800Z 07003KT 030V130 9999 BKN025 OVC040 02/M01 Q1019 NOSIG =
METAR LDZA 181730Z 09003KT 060V130 9999 -RA OVC040 03/M01 Q1019 NOSIG =
METAR LDZA 181700Z 08004KT 030V110 9999 -RA OVC035 03/M01 Q1020 NOSIG =
METAR LDZA 181630Z 10004KT 070V130 9999 -RA OVC030 03/M01 Q1020 NOSIG =
METAR LDZA 181600Z 09004KT 050V130 9999 -RA OVC035 03/M01 Q1020 NOSIG =
METAR LDZA 181530Z 09005KT 040V120 9999 BKN040 03/M01 Q1021 NOSIG =
METAR LDZA 181500Z 08005KT 030V110 9999 -RA FEW037 03/M01 Q1021 NOSIG =
METAR LDZA 181430Z 09007KT 040V140 9999 -RA SCT035 04/M01 Q1021 NOSIG =
METAR LDZA 181400Z 06007KT 020V120 9999 SCT040 04/M02 Q1022 NOSIG =
METAR LDZA 181330Z 06009KT 030V110 9999 SCT033 05/M02 Q1022 NOSIG =
METAR LDZA 181300Z 06008KT 020V110 9999 FEW030 OVC038 05/M02 Q1022 NOSIG =
METAR LDZA 181230Z 07007KT 020V120 9999 SCT038 OVC045 05/M02 Q1022 NOSIG =
METAR LDZA 181200Z 07009KT 030V130 9999 SCT038 OVC045 05/M02 Q1023 NOSIG =
METAR LDZA 181130Z 05007KT 010V140 9999 SCT033 BKN045 05/M02 Q1023 NOSIG =
METAR LDZA 181100Z 04007KT 010V080 9999 FEW030 BKN040 05/M02 Q1023 NOSIG =
METAR LDZA 181030Z 04008KT 360V060 9999 FEW030 BKN040 05/M02 Q1024 NOSIG =
METAR LDZA 181000Z 06007KT 020V120 9999 BKN040 04/M02 Q1025 NOSIG =
METAR LDZA 180930Z 04007KT 360V080 9999 BKN040 04/M02 Q1025 NOSIG =
METAR LDZA 180900Z 06007KT 020V110 9999 BKN040 04/M02 Q1026 NOSIG =
METAR LDZA 180830Z 05008KT 350V100 9999 BKN042 04/M02 Q1026 NOSIG =
METAR LDZA 180800Z 04007KT 010V090 9999 BKN037 03/M01 Q1026 NOSIG =
METAR LDZA 180730Z 04007KT 350V080 9999 FEW035 03/M01 Q1026 NOSIG =
METAR LDZA 180700Z 03007KT 340V050 9999 BKN042 03/M01 Q1026 NOSIG =
METAR LDZA 180630Z 03005KT 010V070 9999 BKN042 03/M02 Q1026 NOSIG =
METAR LDZA 180600Z 06006KT 030V100 9999 BKN042 03/M02 Q1026 NOSIG =
METAR LDZA 180530Z 05007KT 9999 SCT040 03/M02 Q1026 NOSIG =
METAR LDZA 180500Z 04007KT 010V070 9999 FEW045 03/M02 Q1026 NOSIG =
METAR LDZA 180430Z 05005KT 020V080 9999 FEW045 03/M02 Q1027 NOSIG =
METAR LDZA 180400Z 05007KT 9999 FEW045 03/M02 Q1027 NOSIG =
METAR LDZA 180330Z 05007KT CAVOK 03/M02 Q1027 NOSIG =
METAR LDZA 180300Z 04008KT CAVOK 04/M02 Q1027 NOSIG =
METAR LDZA 180230Z 04009KT 010V070 9999 FEW045 04/M02 Q1027 NOSIG =
METAR LDZA 180200Z 05008KT 9999 BKN045 04/M02 Q1028 NOSIG =
METAR LDZA 180130Z 04006KT 350V080 9999 BKN043 04/M02 Q1028 NOSIG =
METAR LDZA 180100Z 04007KT 360V080 9999 BKN040 04/M02 Q1028 NOSIG =
METAR LDZA 180030Z 04006KT 010V080 9999 SCT040 04/M02 Q1028 NOSIG =
METAR LDZA 180000Z 05007KT 9999 SCT040 04/M02 Q1028 NOSIG =
METAR LDZA 172330Z 05007KT 010V100 9999 SCT038 04/M02 Q1028 NOSIG =
METAR LDZA 172300Z 05008KT 9999 FEW040 04/M02 Q1029 NOSIG =
METAR LDZA 172230Z 04008KT 9999 FEW040 04/M02 Q1029 NOSIG =
METAR LDZA 172200Z 04006KT 010V090 CAVOK 04/M02 Q1029 NOSIG =
METAR LDZA 172130Z 03005KT 010V070 CAVOK 03/M02 Q1029 NOSIG =
METAR LDZA 172100Z 03006KT 340V070 CAVOK 03/M03 Q1029 NOSIG =
METAR COR LDZA 172030Z 04006KT 010V070 CAVOK 03/M03 Q1029 NOSIG =
METAR LDZA 172000Z 04005KT 010V070 CAVOK 04/M03 Q1029 NOSIG =
METAR LDZA 171930Z 06004KT 350V110 CAVOK 04/M03 Q1029 NOSIG =
METAR LDZA 171900Z 03011KT CAVOK 04/M03 Q1029 NOSIG =
METAR LDZA 171830Z 02009KT 350V050 CAVOK 04/M03 Q1029 NOSIG =
METAR LDZA 171800Z 03007KT 9999 FEW045 03/M03 Q1029 NOSIG =
METAR LDZA 171730Z 03009KT 9999 FEW045 04/M03 Q1029 NOSIG =
METAR LDZA 171700Z 03007KT 010V070 9999 BKN041 05/M03 Q1030 NOSIG =
METAR LDZA 171630Z 06007KT 020V100 9999 BKN037 05/M03 Q1029 NOSIG =
METAR LDZA 171600Z 07007KT 010V130 9999 BKN035 05/M03 Q1029 NOSIG =
METAR LDZA 171530Z 07007KT 030V120 9999 BKN035 06/M03 Q1029 NOSIG =
METAR LDZA 171500Z 03011KT 9999 FEW030 06/M03 Q1028 NOSIG =
METAR LDZA 171430Z 03012KT 360V070 9999 FEW030 06/M03 Q1028 NOSIG =
METAR LDZA 171400Z 05012KT 020V080 9999 FEW030 07/M02 Q1028 NOSIG =
METAR LDZA 171330Z 05013KT 010V090 9999 FEW030 07/M02 Q1028 NOSIG =
METAR LDZA 171300Z 04012KT 020V080 9999 FEW030 07/M01 Q1028 NOSIG =
METAR LDZA 171230Z 05010KT 020V100 9999 SCT030 06/M02 Q1029 NOSIG =
METAR LDZA 171200Z 06008KT 020V140 9999 BKN030 05/M02 Q1029 TEMPO 05012KT =
METAR LDZA 171130Z 06007KT 010V110 9999 SCT022 BKN030 05/M02 Q1029 TEMPO 05012KT =
METAR LDZA 171100Z 06008KT 020V110 9999 BKN024 05/M02 Q1030 TEMPO 05012KT =
METAR LDZA 171030Z 03012KT 360V060 9999 FEW024 BKN030 05/M02 Q1030 NOSIG =
METAR LDZA 171000Z 05010KT 020V090 CAVOK 05/M02 Q1030 NOSIG =
METAR LDZA 170930Z 06011KT 020V110 CAVOK 05/M02 Q1030 NOSIG =
METAR LDZA 170900Z 05013KT 020V090 CAVOK 05/M02 Q1030 NOSIG =
METAR LDZA 170830Z 04014KT 340V070 CAVOK 04/M02 Q1030 NOSIG =
METAR LDZA 170800Z 04012KT 010V080 CAVOK 03/M02 Q1030 NOSIG =
METAR LDZA 170730Z 04010KT 010V070 CAVOK 03/M02 Q1030 NOSIG =
METAR LDZA 170700Z 04006KT CAVOK 02/M02 Q1030 NOSIG =